createdAt,value
2017-07-17T00:00:06.615Z,0
2017-07-17T00:01:19.263Z,0
2017-07-17T00:02:31.846Z,0
2017-07-17T00:03:44.144Z,0
2017-07-17T00:04:56.463Z,0
2017-07-17T00:06:08.398Z,0
2017-07-17T00:07:20.655Z,0
2017-07-17T00:08:33.333Z,0
2017-07-17T00:09:45.883Z,0
2017-07-17T00:10:58.439Z,0
2017-07-17T00:12:11.034Z,0
2017-07-17T00:13:23.323Z,0
2017-07-17T00:14:35.974Z,0
2017-07-17T00:15:48.627Z,0
2017-07-17T00:17:00.540Z,0
2017-07-17T00:18:12.461Z,0
2017-07-17T00:19:24.415Z,0
2017-07-17T00:20:35.778Z,0
2017-07-17T00:21:48.441Z,0
2017-07-17T00:22:59.772Z,0
2017-07-17T00:24:12.380Z,0
2017-07-17T00:25:24.336Z,0
2017-07-17T00:26:36.679Z,0
2017-07-17T00:27:49.323Z,0
2017-07-17T00:29:01.901Z,0
2017-07-17T00:30:13.618Z,0
2017-07-17T00:31:26.272Z,0
2017-07-17T00:32:38.860Z,0
2017-07-17T00:33:51.138Z,0
2017-07-17T00:35:03.698Z,0
2017-07-17T00:36:16.274Z,0
2017-07-17T00:37:28.565Z,0
2017-07-17T00:38:40.886Z,0
2017-07-17T00:39:52.863Z,0
2017-07-17T00:41:05.460Z,0
2017-07-17T00:42:18.031Z,0
2017-07-17T00:43:30.626Z,0
2017-07-17T00:44:42.579Z,0
2017-07-17T00:45:55.179Z,0
2017-07-17T00:47:07.109Z,0
2017-07-17T00:48:19.377Z,0
2017-07-17T00:49:31.682Z,0
2017-07-17T00:50:43.951Z,0
2017-07-17T00:51:56.229Z,0
2017-07-17T00:53:08.156Z,0
2017-07-17T00:54:20.093Z,0
2017-07-17T00:55:31.779Z,0
2017-07-17T00:56:44.399Z,0
2017-07-17T00:57:56.926Z,0
2017-07-17T00:59:09.180Z,0
2017-07-17T01:00:21.505Z,0
2017-07-17T01:01:33.783Z,0
2017-07-17T01:02:45.859Z,0
2017-07-17T01:03:58.145Z,0
2017-07-17T01:05:10.413Z,0
2017-07-17T01:06:22.700Z,0
2017-07-17T01:07:35.005Z,0
2017-07-17T01:08:47.617Z,0
2017-07-17T01:10:00.237Z,0
2017-07-17T01:11:11.618Z,0
2017-07-17T01:12:23.938Z,0
2017-07-17T01:13:36.276Z,0
2017-07-17T01:14:48.225Z,0
2017-07-17T01:16:00.171Z,0
2017-07-17T01:17:11.867Z,0
2017-07-17T01:18:24.183Z,0
2017-07-17T01:19:36.779Z,0
2017-07-17T01:20:49.355Z,0
2017-07-17T01:22:01.922Z,0
2017-07-17T01:23:13.940Z,0
2017-07-17T01:24:25.614Z,0
2017-07-17T01:25:37.957Z,0
2017-07-17T01:26:50.529Z,0
2017-07-17T01:28:03.181Z,0
2017-07-17T01:29:15.484Z,0
2017-07-17T01:30:27.853Z,0
2017-07-17T01:31:40.431Z,0
2017-07-17T01:32:52.753Z,0
2017-07-17T01:34:04.409Z,0
2017-07-17T01:35:16.969Z,0
2017-07-17T01:36:29.640Z,0
2017-07-17T01:37:41.899Z,0
2017-07-17T01:38:53.923Z,0
2017-07-17T01:40:05.906Z,0
2017-07-17T01:41:18.222Z,0
2017-07-17T01:42:29.913Z,0
2017-07-17T01:43:41.885Z,0
2017-07-17T01:44:54.517Z,0
2017-07-17T01:46:06.848Z,0
2017-07-17T01:47:18.808Z,0
2017-07-17T01:48:31.450Z,0
2017-07-17T01:49:43.421Z,0
2017-07-17T01:50:55.765Z,0
2017-07-17T01:52:08.303Z,0
2017-07-17T01:53:20.608Z,0
2017-07-17T01:54:32.591Z,0
2017-07-17T01:55:45.194Z,0
2017-07-17T01:56:57.169Z,0
2017-07-17T01:58:09.445Z,0
2017-07-17T01:59:21.798Z,0
2017-07-17T02:00:34.456Z,0
2017-07-17T02:01:46.460Z,0
2017-07-17T02:02:58.400Z,0
2017-07-17T02:04:10.994Z,0
2017-07-17T02:05:23.285Z,0
2017-07-17T02:06:35.511Z,0
2017-07-17T02:07:47.798Z,0
2017-07-17T02:09:00.040Z,0
2017-07-17T02:10:11.998Z,0
2017-07-17T02:11:24.300Z,0
2017-07-17T02:12:35.943Z,0
2017-07-17T02:13:48.786Z,0
2017-07-17T02:15:01.493Z,0
2017-07-17T02:16:13.772Z,0
2017-07-17T02:17:26.286Z,0
2017-07-17T02:18:38.553Z,0
2017-07-17T02:19:50.831Z,0
2017-07-17T02:21:03.471Z,0
2017-07-17T02:22:15.513Z,0
2017-07-17T02:23:27.205Z,0
2017-07-17T02:24:38.554Z,0
2017-07-17T02:25:51.174Z,0
2017-07-17T02:27:03.783Z,0
2017-07-17T02:28:15.446Z,0
2017-07-17T02:29:27.739Z,0
2017-07-17T02:30:40.385Z,0
2017-07-17T02:31:53.027Z,0
2017-07-17T02:33:05.346Z,0
2017-07-17T02:34:17.651Z,0
2017-07-17T02:35:30.198Z,0
2017-07-17T02:36:42.438Z,0
2017-07-17T02:37:54.410Z,0
2017-07-17T02:39:06.386Z,0
2017-07-17T02:40:18.974Z,0
2017-07-17T02:41:31.568Z,0
2017-07-17T02:42:43.866Z,0
2017-07-17T02:43:56.155Z,0
2017-07-17T02:45:08.705Z,0
2017-07-17T02:46:21.512Z,0
2017-07-17T02:47:33.771Z,0
2017-07-17T02:48:45.720Z,0
2017-07-17T02:49:57.998Z,0
2017-07-17T02:51:10.285Z,0
2017-07-17T02:52:22.210Z,0
2017-07-17T02:53:34.157Z,0
2017-07-17T02:54:46.422Z,0
2017-07-17T02:55:59.006Z,0
2017-07-17T02:57:10.996Z,0
2017-07-17T02:58:23.648Z,5
2017-07-17T02:59:35.934Z,5
2017-07-17T03:00:48.156Z,5
2017-07-17T03:02:00.450Z,5
2017-07-17T03:03:12.793Z,5
2017-07-17T03:04:25.440Z,5
2017-07-17T03:05:37.412Z,5
2017-07-17T03:06:49.992Z,5
2017-07-17T03:08:01.662Z,5
2017-07-17T03:09:14.274Z,10
2017-07-17T03:10:26.877Z,10
2017-07-17T03:11:39.494Z,10
2017-07-17T03:12:51.784Z,10
2017-07-17T03:14:04.070Z,10
2017-07-17T03:15:15.441Z,10
2017-07-17T03:16:27.154Z,10
2017-07-17T03:17:39.814Z,10
2017-07-17T03:18:52.472Z,10
2017-07-17T03:20:04.746Z,10
2017-07-17T03:21:16.758Z,10
2017-07-17T03:22:28.727Z,15
2017-07-17T03:23:40.737Z,15
2017-07-17T03:24:53.076Z,15
2017-07-17T03:26:05.493Z,20
2017-07-17T03:27:17.528Z,25
2017-07-17T03:28:29.160Z,30
2017-07-17T03:29:40.855Z,30
2017-07-17T03:30:53.152Z,30
2017-07-17T03:32:05.125Z,30
2017-07-17T03:33:17.441Z,30
2017-07-17T03:34:30.069Z,35
2017-07-17T03:35:42.682Z,35
2017-07-17T03:36:54.960Z,35
2017-07-17T03:38:06.632Z,40
2017-07-17T03:39:18.934Z,45
2017-07-17T03:40:30.683Z,45
2017-07-17T03:41:42.641Z,50
2017-07-17T03:42:55.271Z,50
2017-07-17T03:44:06.908Z,50
2017-07-17T03:45:19.227Z,50
2017-07-17T03:46:31.576Z,50
2017-07-17T03:47:43.918Z,55
2017-07-17T03:48:56.523Z,55
2017-07-17T03:50:09.102Z,55
2017-07-17T03:51:21.364Z,55
2017-07-17T03:52:33.689Z,55
2017-07-17T03:53:46.304Z,60
2017-07-17T03:54:58.269Z,60
2017-07-17T03:56:10.515Z,60
2017-07-17T03:57:22.843Z,60
2017-07-17T03:58:35.484Z,65
2017-07-17T03:59:47.709Z,65
2017-07-17T04:01:00.054Z,70
2017-07-17T04:02:11.706Z,70
2017-07-17T04:03:23.986Z,75
2017-07-17T04:04:36.281Z,90
2017-07-17T04:05:48.572Z,95
2017-07-17T04:07:01.156Z,95
2017-07-17T04:08:13.491Z,80
2017-07-17T04:09:26.126Z,80
2017-07-17T04:10:38.401Z,80
2017-07-17T04:11:50.957Z,80
2017-07-17T04:13:03.534Z,80
2017-07-17T04:14:15.792Z,85
2017-07-17T04:15:27.434Z,85
2017-07-17T04:16:39.438Z,90
2017-07-17T04:17:52.123Z,95
2017-07-17T04:19:04.468Z,110
2017-07-17T04:20:16.714Z,135
2017-07-17T04:21:29.009Z,155
2017-07-17T04:22:41.317Z,140
2017-07-17T04:23:52.957Z,120
2017-07-17T04:25:04.974Z,120
2017-07-17T04:26:17.327Z,125
2017-07-17T04:27:29.936Z,160
2017-07-17T04:28:42.530Z,165
2017-07-17T04:29:54.493Z,155
2017-07-17T04:31:07.100Z,175
2017-07-17T04:32:19.707Z,145
2017-07-17T04:33:31.975Z,130
2017-07-17T04:34:44.234Z,190
2017-07-17T04:35:56.235Z,165
2017-07-17T04:37:08.547Z,135
2017-07-17T04:38:20.784Z,155
2017-07-17T04:39:32.469Z,140
2017-07-17T04:40:45.050Z,155
2017-07-17T04:41:57.063Z,140
2017-07-17T04:43:09.645Z,155
2017-07-17T04:44:22.270Z,135
2017-07-17T04:45:34.422Z,135
2017-07-17T04:46:47.033Z,155
2017-07-17T04:47:59.621Z,130
2017-07-17T04:49:11.616Z,115
2017-07-17T04:50:23.938Z,125
2017-07-17T04:51:35.951Z,140
2017-07-17T04:52:48.211Z,125
2017-07-17T04:54:00.200Z,135
2017-07-17T04:55:12.540Z,130
2017-07-17T04:56:25.056Z,135
2017-07-17T04:57:37.346Z,140
2017-07-17T04:58:49.942Z,145
2017-07-17T05:00:01.586Z,150
2017-07-17T05:01:13.595Z,165
2017-07-17T05:02:25.524Z,165
2017-07-17T05:03:38.095Z,195
2017-07-17T05:04:50.710Z,205
2017-07-17T05:06:02.379Z,215
2017-07-17T05:07:14.011Z,230
2017-07-17T05:08:26.276Z,195
2017-07-17T05:09:38.541Z,250
2017-07-17T05:10:51.143Z,220
2017-07-17T05:12:03.433Z,195
2017-07-17T05:13:15.658Z,305
2017-07-17T05:14:27.606Z,335
2017-07-17T05:15:39.278Z,325
2017-07-17T05:16:51.599Z,325
2017-07-17T05:18:03.881Z,300
2017-07-17T05:19:16.536Z,325
2017-07-17T05:20:28.838Z,315
2017-07-17T05:21:41.109Z,395
2017-07-17T05:22:52.771Z,400
2017-07-17T05:24:05.059Z,355
2017-07-17T05:25:17.066Z,350
2017-07-17T05:26:28.724Z,305
2017-07-17T05:27:41.036Z,295
2017-07-17T05:28:53.660Z,390
2017-07-17T05:30:06.233Z,390
2017-07-17T05:31:18.524Z,375
2017-07-17T05:32:30.458Z,405
2017-07-17T05:33:42.749Z,415
2017-07-17T05:34:55.389Z,250
2017-07-17T05:36:07.030Z,265
2017-07-17T05:37:19.650Z,290
2017-07-17T05:38:31.909Z,245
2017-07-17T05:39:44.490Z,275
2017-07-17T05:40:57.126Z,295
2017-07-17T05:42:09.118Z,330
2017-07-17T05:43:21.691Z,365
2017-07-17T05:44:33.649Z,350
2017-07-17T05:45:45.922Z,280
2017-07-17T05:46:58.568Z,320
2017-07-17T05:48:10.556Z,385
2017-07-17T05:49:22.863Z,300
2017-07-17T05:50:35.465Z,345
2017-07-17T05:51:47.780Z,315
2017-07-17T05:52:59.746Z,330
2017-07-17T05:54:12.372Z,400
2017-07-17T05:55:24.668Z,415
2017-07-17T05:56:37.227Z,345
2017-07-17T05:57:49.837Z,410
2017-07-17T05:59:01.830Z,280
2017-07-17T06:00:14.148Z,270
2017-07-17T06:01:26.717Z,295
2017-07-17T06:02:39.304Z,300
2017-07-17T06:03:51.902Z,295
2017-07-17T06:05:03.882Z,320
2017-07-17T06:06:16.537Z,310
2017-07-17T06:07:28.517Z,295
2017-07-17T06:08:40.818Z,330
2017-07-17T06:09:52.839Z,315
2017-07-17T06:11:04.909Z,350
2017-07-17T06:12:17.191Z,420
2017-07-17T06:13:29.529Z,305
2017-07-17T06:14:41.771Z,480
2017-07-17T06:15:54.074Z,370
2017-07-17T06:17:06.343Z,325
2017-07-17T06:18:18.339Z,330
2017-07-17T06:19:30.640Z,390
2017-07-17T06:20:42.971Z,320
2017-07-17T06:21:55.277Z,275
2017-07-17T06:23:07.948Z,275
2017-07-17T06:24:19.644Z,365
2017-07-17T06:25:32.262Z,450
2017-07-17T06:26:44.871Z,455
2017-07-17T06:27:57.194Z,270
2017-07-17T06:29:09.111Z,285
2017-07-17T06:30:21.721Z,350
2017-07-17T06:31:34.008Z,565
2017-07-17T06:32:46.572Z,255
2017-07-17T06:33:58.859Z,290
2017-07-17T06:35:11.428Z,370
2017-07-17T06:36:24.005Z,310
2017-07-17T06:37:35.976Z,435
2017-07-17T06:38:48.522Z,680
2017-07-17T06:40:01.181Z,620
2017-07-17T06:41:13.157Z,580
2017-07-17T06:42:25.855Z,535
2017-07-17T06:43:37.828Z,430
2017-07-17T06:44:50.136Z,320
2017-07-17T06:46:02.413Z,330
2017-07-17T06:47:14.415Z,330
2017-07-17T06:48:26.689Z,310
2017-07-17T06:49:39.361Z,285
2017-07-17T06:50:51.387Z,320
2017-07-17T06:52:03.759Z,415
2017-07-17T06:53:16.119Z,645
2017-07-17T06:54:28.714Z,885
2017-07-17T06:55:40.957Z,955
2017-07-17T06:56:52.644Z,620
2017-07-17T06:58:05.367Z,1010
2017-07-17T06:59:17.700Z,1185
2017-07-17T07:00:30.073Z,1320
2017-07-17T07:01:42.644Z,1320
2017-07-17T07:02:54.603Z,735
2017-07-17T07:04:06.591Z,520
2017-07-17T07:05:18.901Z,520
2017-07-17T07:06:31.147Z,490
2017-07-17T07:07:43.744Z,1010
2017-07-17T07:08:56.389Z,585
2017-07-17T07:10:08.733Z,1510
2017-07-17T07:11:20.405Z,575
2017-07-17T07:12:32.353Z,1455
2017-07-17T07:13:43.724Z,1535
2017-07-17T07:14:56.070Z,1565
2017-07-17T07:16:08.634Z,625
2017-07-17T07:17:21.238Z,545
2017-07-17T07:18:33.579Z,600
2017-07-17T07:19:45.840Z,1630
2017-07-17T07:20:58.499Z,1575
2017-07-17T07:22:10.757Z,1615
2017-07-17T07:23:21.813Z,1540
2017-07-17T07:24:33.503Z,1525
2017-07-17T07:25:46.059Z,1665
2017-07-17T07:26:58.376Z,1180
2017-07-17T07:28:10.351Z,630
2017-07-17T07:29:22.926Z,1495
2017-07-17T07:30:35.532Z,825
2017-07-17T07:31:47.515Z,985
2017-07-17T07:32:59.519Z,635
2017-07-17T07:34:11.804Z,430
2017-07-17T07:35:24.103Z,320
2017-07-17T07:36:36.173Z,300
2017-07-17T07:37:48.144Z,1570
2017-07-17T07:39:01.049Z,1485
2017-07-17T07:40:13.296Z,1795
2017-07-17T07:41:25.580Z,1820
2017-07-17T07:42:37.906Z,1865
2017-07-17T07:43:50.204Z,965
2017-07-17T07:45:02.544Z,1725
2017-07-17T07:46:14.810Z,1905
2017-07-17T07:47:27.089Z,1885
2017-07-17T07:48:39.067Z,635
2017-07-17T07:49:51.008Z,985
2017-07-17T07:51:02.074Z,365
2017-07-17T07:52:13.118Z,310
2017-07-17T07:53:23.848Z,340
2017-07-17T07:54:35.184Z,1990
2017-07-17T07:55:47.196Z,2010
2017-07-17T07:56:59.488Z,575
2017-07-17T07:58:11.494Z,2070
2017-07-17T07:59:23.172Z,2215
2017-07-17T08:00:35.415Z,2260
2017-07-17T08:01:47.686Z,2310
2017-07-17T08:03:00.310Z,2000
2017-07-17T08:04:12.576Z,620
2017-07-17T08:05:25.188Z,745
2017-07-17T08:06:36.892Z,580
2017-07-17T08:07:48.870Z,2320
2017-07-17T08:09:01.501Z,1100
2017-07-17T08:10:13.824Z,2430
2017-07-17T08:11:26.113Z,2215
2017-07-17T08:12:37.816Z,650
2017-07-17T08:13:49.445Z,665
2017-07-17T08:15:01.739Z,695
2017-07-17T08:16:13.461Z,2205
2017-07-17T08:17:25.667Z,565
2017-07-17T08:18:38.312Z,545
2017-07-17T08:19:50.573Z,2360
2017-07-17T08:21:02.238Z,2595
2017-07-17T08:22:14.163Z,1585
2017-07-17T08:23:25.522Z,800
2017-07-17T08:24:37.511Z,1005
2017-07-17T08:25:50.107Z,2200
2017-07-17T08:27:02.117Z,495
2017-07-17T08:28:14.772Z,520
2017-07-17T08:29:27.396Z,2365
2017-07-17T08:30:40.016Z,2415
2017-07-17T08:31:52.645Z,2505
2017-07-17T08:33:04.735Z,2565
2017-07-17T08:34:17.366Z,2545
2017-07-17T08:35:29.972Z,2560
2017-07-17T08:36:42.293Z,1230
2017-07-17T08:37:54.872Z,2525
2017-07-17T08:39:07.133Z,2625
2017-07-17T08:40:19.183Z,890
2017-07-17T08:41:31.825Z,740
2017-07-17T08:42:43.421Z,2605
2017-07-17T08:43:56.043Z,2550
2017-07-17T08:45:08.123Z,2595
2017-07-17T08:46:20.797Z,2625
2017-07-17T08:47:32.830Z,2645
2017-07-17T08:48:44.825Z,2870
2017-07-17T08:49:57.121Z,2870
2017-07-17T08:51:09.446Z,2740
2017-07-17T08:52:21.739Z,2795
2017-07-17T08:53:33.734Z,2690
2017-07-17T08:54:46.374Z,2690
2017-07-17T08:55:58.691Z,2780
2017-07-17T08:57:10.379Z,3035
2017-07-17T08:58:21.170Z,2975
2017-07-17T08:59:33.469Z,1045
2017-07-17T09:00:46.359Z,3060
2017-07-17T09:01:58.368Z,3000
2017-07-17T09:03:10.802Z,2495
2017-07-17T09:04:22.788Z,2845
2017-07-17T09:05:35.061Z,2955
2017-07-17T09:06:47.402Z,2965
2017-07-17T09:07:59.715Z,3010
2017-07-17T09:09:10.755Z,3085
2017-07-17T09:10:23.403Z,3285
2017-07-17T09:11:35.703Z,2790
2017-07-17T09:12:48.027Z,2995
2017-07-17T09:14:00.317Z,3020
2017-07-17T09:15:12.285Z,2840
2017-07-17T09:16:23.632Z,2995
2017-07-17T09:17:36.240Z,2955
2017-07-17T09:18:48.873Z,2940
2017-07-17T09:20:01.512Z,3175
2017-07-17T09:21:13.197Z,2995
2017-07-17T09:22:25.485Z,3165
2017-07-17T09:23:36.850Z,3240
2017-07-17T09:24:48.838Z,3140
2017-07-17T09:26:01.218Z,3100
2017-07-17T09:27:13.948Z,3120
2017-07-17T09:28:26.214Z,2575
2017-07-17T09:29:38.274Z,3440
2017-07-17T09:30:50.257Z,3370
2017-07-17T09:32:02.611Z,3415
2017-07-17T09:33:14.605Z,3430
2017-07-17T09:34:27.219Z,3590
2017-07-17T09:35:39.499Z,975
2017-07-17T09:36:52.175Z,1345
2017-07-17T09:38:04.826Z,2215
2017-07-17T09:39:16.520Z,3345
2017-07-17T09:40:28.801Z,3390
2017-07-17T09:41:40.472Z,3510
2017-07-17T09:42:52.802Z,3540
2017-07-17T09:44:04.787Z,3625
2017-07-17T09:45:17.459Z,3565
2017-07-17T09:46:29.808Z,3435
2017-07-17T09:47:41.825Z,1280
2017-07-17T09:48:53.803Z,2765
2017-07-17T09:50:05.504Z,3400
2017-07-17T09:51:17.556Z,3435
2017-07-17T09:52:29.232Z,3405
2017-07-17T09:53:41.235Z,3545
2017-07-17T09:54:53.263Z,3645
2017-07-17T09:56:04.925Z,3515
2017-07-17T09:57:17.234Z,3540
2017-07-17T09:58:29.861Z,3475
2017-07-17T09:59:41.872Z,3590
2017-07-17T10:00:54.210Z,3520
2017-07-17T10:02:06.528Z,3380
2017-07-17T10:03:19.151Z,3800
2017-07-17T10:04:31.476Z,3820
2017-07-17T10:05:44.150Z,3505
2017-07-17T10:06:56.461Z,3770
2017-07-17T10:08:09.047Z,3755
2017-07-17T10:09:21.654Z,3900
2017-07-17T10:10:34.297Z,3735
2017-07-17T10:11:46.277Z,3590
2017-07-17T10:12:58.924Z,3155
2017-07-17T10:14:11.203Z,1620
2017-07-17T10:15:23.207Z,1105
2017-07-17T10:16:35.211Z,3790
2017-07-17T10:17:47.547Z,3790
2017-07-17T10:18:59.833Z,3685
2017-07-17T10:20:11.263Z,3690
2017-07-17T10:21:23.574Z,4365
2017-07-17T10:22:35.550Z,4385
2017-07-17T10:23:46.901Z,4040
2017-07-17T10:24:58.600Z,3185
2017-07-17T10:26:10.898Z,4030
2017-07-17T10:27:23.216Z,3905
2017-07-17T10:28:35.511Z,3855
2017-07-17T10:29:47.500Z,3610
2017-07-17T10:30:59.772Z,3230
2017-07-17T10:32:12.103Z,3470
2017-07-17T10:33:24.427Z,3155
2017-07-17T10:34:37.058Z,835
2017-07-17T10:35:49.049Z,750
2017-07-17T10:37:01.013Z,1900
2017-07-17T10:38:13.035Z,3700
2017-07-17T10:39:25.007Z,3735
2017-07-17T10:40:36.665Z,3775
2017-07-17T10:41:49.284Z,3755
2017-07-17T10:43:01.912Z,4030
2017-07-17T10:44:13.919Z,3855
2017-07-17T10:45:26.223Z,3595
2017-07-17T10:46:38.499Z,3760
2017-07-17T10:47:50.507Z,3390
2017-07-17T10:49:02.852Z,3340
2017-07-17T10:50:14.841Z,3065
2017-07-17T10:51:27.453Z,3465
2017-07-17T10:52:39.431Z,3295
2017-07-17T10:53:51.763Z,3370
2017-07-17T10:55:04.401Z,1000
2017-07-17T10:56:16.390Z,810
2017-07-17T10:57:28.793Z,3105
2017-07-17T10:58:41.365Z,3010
2017-07-17T10:59:53.689Z,2215
2017-07-17T11:01:06.300Z,1015
2017-07-17T11:02:17.989Z,740
2017-07-17T11:03:30.344Z,830
2017-07-17T11:04:42.913Z,2680
2017-07-17T11:05:55.536Z,2635
2017-07-17T11:07:08.123Z,2380
2017-07-17T11:08:20.129Z,2330
2017-07-17T11:09:31.799Z,2365
2017-07-17T11:10:44.384Z,2195
2017-07-17T11:11:57.040Z,2735
2017-07-17T11:13:09.696Z,1280
2017-07-17T11:14:22.023Z,1070
2017-07-17T11:15:34.676Z,2365
2017-07-17T11:16:47.004Z,1420
2017-07-17T11:17:59.301Z,1675
2017-07-17T11:19:11.651Z,1860
2017-07-17T11:20:24.341Z,1920
2017-07-17T11:21:36.690Z,1915
2017-07-17T11:22:48.713Z,2105
2017-07-17T11:24:00.675Z,2475
2017-07-17T11:25:12.311Z,1615
2017-07-17T11:26:23.383Z,2340
2017-07-17T11:27:36.019Z,2335
2017-07-17T11:28:48.334Z,2435
2017-07-17T11:30:00.321Z,1205
2017-07-17T11:31:12.657Z,1285
2017-07-17T11:32:24.655Z,1655
2017-07-17T11:33:36.346Z,890
2017-07-17T11:34:47.800Z,785
2017-07-17T11:36:00.396Z,905
2017-07-17T11:37:12.417Z,1970
2017-07-17T11:38:24.755Z,8205
2017-07-17T11:39:37.127Z,5145
2017-07-17T11:40:49.072Z,4740
2017-07-17T11:42:01.693Z,4790
2017-07-17T11:43:13.322Z,4740
2017-07-17T11:44:25.942Z,4790
2017-07-17T11:45:37.984Z,3755
2017-07-17T11:56:47.816Z,1030
2017-07-17T11:59:11.028Z,1850
2017-07-17T12:00:23.610Z,2615
2017-07-17T12:01:36.204Z,4615
2017-07-17T12:02:48.810Z,1605
2017-07-17T12:04:01.423Z,4960
2017-07-17T12:06:24.712Z,1310
2017-07-17T12:07:37.351Z,2000
2017-07-17T12:08:49.953Z,3940
2017-07-17T12:10:02.573Z,4365
2017-07-17T12:11:14.902Z,4565
2017-07-17T12:12:27.287Z,4585
2017-07-17T12:13:39.633Z,4460
2017-07-17T12:14:52.259Z,4740
2017-07-17T12:16:04.888Z,2295
2017-07-17T12:17:16.928Z,4710
2017-07-17T12:18:29.575Z,2950
2017-07-17T12:19:42.228Z,4295
2017-07-17T12:20:54.218Z,4620
2017-07-17T12:22:06.831Z,4670
2017-07-17T12:23:19.432Z,5025
2017-07-17T12:24:32.135Z,4995
2017-07-17T12:25:44.714Z,5035
2017-07-17T12:26:57.040Z,5410
2017-07-17T12:28:09.347Z,4900
2017-07-17T12:29:22.021Z,1465
2017-07-17T12:30:34.371Z,5230
2017-07-17T12:31:47.021Z,3510
2017-07-17T12:32:59.616Z,2675
2017-07-17T12:34:11.590Z,1695
2017-07-17T12:35:24.285Z,1640
2017-07-17T12:36:36.627Z,4160
2017-07-17T12:37:48.580Z,4840
2017-07-17T12:39:01.205Z,5800
2017-07-17T12:40:13.843Z,1470
2017-07-17T12:41:26.146Z,4945
2017-07-17T12:42:38.499Z,5735
2017-07-17T12:43:50.802Z,6050
2017-07-17T12:45:03.399Z,6610
2017-07-17T12:46:16.073Z,2680
2017-07-17T12:47:28.406Z,995
2017-07-17T12:48:41.056Z,1405
2017-07-17T12:49:53.337Z,2125
2017-07-17T12:51:05.683Z,3665
2017-07-17T12:52:17.680Z,2600
2017-07-17T12:53:30.251Z,1700
2017-07-17T12:54:42.892Z,6645
2017-07-17T12:55:55.547Z,2765
2017-07-17T12:57:07.894Z,6415
2017-07-17T12:58:20.232Z,6480
2017-07-17T12:59:32.236Z,6445
2017-07-17T13:00:44.530Z,1130
2017-07-17T13:01:56.894Z,2235
2017-07-17T13:03:09.548Z,960
2017-07-17T13:04:21.245Z,865
2017-07-17T13:05:33.224Z,870
2017-07-17T13:06:45.937Z,850
2017-07-17T13:07:58.623Z,1075
2017-07-17T13:09:10.650Z,700
2017-07-17T13:10:23.294Z,865
2017-07-17T13:11:35.641Z,850
2017-07-17T13:12:47.997Z,1400
2017-07-17T13:14:00.699Z,5190
2017-07-17T13:15:13.399Z,6010
2017-07-17T13:16:25.416Z,6250
2017-07-17T13:17:37.959Z,6055
2017-07-17T13:18:50.591Z,6135
2017-07-17T13:20:02.925Z,5530
2017-07-17T13:21:15.261Z,5745
2017-07-17T13:22:27.973Z,5880
2017-07-17T13:23:40.621Z,6040
2017-07-17T13:24:52.700Z,5465
2017-07-17T13:26:04.994Z,5315
2017-07-17T13:27:17.370Z,5625
2017-07-17T13:28:29.378Z,5500
2017-07-17T13:29:41.726Z,5670
2017-07-17T13:30:54.347Z,4345
2017-07-17T13:32:06.959Z,765
2017-07-17T13:33:19.248Z,6170
2017-07-17T13:34:31.933Z,2435
2017-07-17T13:35:44.503Z,6065
2017-07-17T13:36:57.086Z,5910
2017-07-17T13:38:09.449Z,825
2017-07-17T13:39:21.767Z,920
2017-07-17T13:40:34.036Z,4800
2017-07-17T13:41:46.371Z,1895
2017-07-17T13:42:59.058Z,795
2017-07-17T13:44:11.351Z,2745
2017-07-17T13:45:23.608Z,5595
2017-07-17T13:46:35.915Z,5400
2017-07-17T13:47:47.867Z,5070
2017-07-17T13:49:00.527Z,5390
2017-07-17T13:50:13.216Z,5455
2017-07-17T13:51:25.860Z,5150
2017-07-17T13:52:38.505Z,5090
2017-07-17T13:53:51.129Z,5045
2017-07-17T13:55:03.737Z,5085
2017-07-17T13:56:15.798Z,5295
2017-07-17T13:57:28.444Z,5490
2017-07-17T13:58:41.115Z,3070
2017-07-17T13:59:53.738Z,5375
2017-07-17T14:01:06.422Z,4990
2017-07-17T14:02:19.082Z,4870
2017-07-17T14:03:31.684Z,4440
2017-07-17T14:04:44.084Z,4205
2017-07-17T14:05:56.394Z,4645
2017-07-17T14:07:08.693Z,5055
2017-07-17T14:08:21.372Z,5135
2017-07-17T14:09:33.662Z,5175
2017-07-17T14:10:45.368Z,3215
2017-07-17T14:11:57.417Z,750
2017-07-17T14:13:09.777Z,3175
2017-07-17T14:14:22.140Z,910
2017-07-17T14:15:34.792Z,770
2017-07-17T14:16:47.337Z,620
2017-07-17T14:17:59.666Z,600
2017-07-17T14:19:12.343Z,655
2017-07-17T14:20:24.970Z,4265
2017-07-17T14:21:37.598Z,3925
2017-07-17T14:22:49.623Z,485
2017-07-17T14:24:01.647Z,730
2017-07-17T14:25:14.023Z,4665
2017-07-17T14:26:26.645Z,2210
2017-07-17T14:27:39.414Z,4645
2017-07-17T14:28:52.048Z,4405
2017-07-17T14:30:04.347Z,4665
2017-07-17T14:31:16.402Z,4585
2017-07-17T14:32:29.038Z,4465
2017-07-17T14:33:41.687Z,4570
2017-07-17T14:34:54.026Z,3770
2017-07-17T14:36:06.342Z,4795
2017-07-17T14:37:18.730Z,4825
2017-07-17T14:38:31.045Z,4785
2017-07-17T14:39:43.371Z,4425
2017-07-17T14:40:56.035Z,4430
2017-07-17T14:42:08.638Z,3960
2017-07-17T14:43:20.975Z,640
2017-07-17T14:44:33.023Z,3790
2017-07-17T14:45:45.328Z,2730
2017-07-17T14:46:57.947Z,995
2017-07-17T14:48:10.536Z,440
2017-07-17T14:49:23.194Z,385
2017-07-17T14:50:35.552Z,340
2017-07-17T14:51:48.249Z,335
2017-07-17T14:53:00.874Z,345
2017-07-17T14:54:13.230Z,330
2017-07-17T14:55:25.548Z,330
2017-07-17T14:56:37.909Z,330
2017-07-17T14:57:50.580Z,340
2017-07-17T14:59:02.576Z,380
2017-07-17T15:00:14.891Z,425
2017-07-17T15:01:27.230Z,1130
2017-07-17T15:02:39.515Z,620
2017-07-17T15:03:51.808Z,485
2017-07-17T15:05:04.401Z,490
2017-07-17T15:06:16.736Z,465
2017-07-17T15:07:29.375Z,455
2017-07-17T15:08:41.664Z,490
2017-07-17T15:09:53.674Z,440
2017-07-17T15:11:06.341Z,420
2017-07-17T15:12:18.737Z,490
2017-07-17T15:13:30.754Z,410
2017-07-17T15:14:43.077Z,435
2017-07-17T15:15:55.690Z,465
2017-07-17T15:17:08.364Z,475
2017-07-17T15:18:20.982Z,460
2017-07-17T15:19:32.636Z,535
2017-07-17T15:20:45.297Z,520
2017-07-17T15:21:57.581Z,435
2017-07-17T15:23:09.891Z,360
2017-07-17T15:24:22.228Z,300
2017-07-17T15:25:34.469Z,285
2017-07-17T15:26:46.522Z,295
2017-07-17T15:27:58.523Z,325
2017-07-17T15:29:10.814Z,325
2017-07-17T15:30:23.148Z,450
2017-07-17T15:31:35.464Z,430
2017-07-17T15:32:48.119Z,460
2017-07-17T15:34:00.435Z,405
2017-07-17T15:35:12.734Z,440
2017-07-17T15:36:25.380Z,385
2017-07-17T15:37:37.686Z,300
2017-07-17T15:38:49.711Z,395
2017-07-17T15:40:02.043Z,275
2017-07-17T15:41:14.646Z,285
2017-07-17T15:42:27.244Z,385
2017-07-17T15:43:39.529Z,260
2017-07-17T15:44:52.142Z,415
2017-07-17T15:46:04.739Z,715
2017-07-17T15:47:17.397Z,270
2017-07-17T15:48:30.004Z,370
2017-07-17T15:49:42.361Z,355
2017-07-17T15:50:54.945Z,315
2017-07-17T15:52:07.578Z,320
2017-07-17T15:53:20.240Z,350
2017-07-17T15:54:32.820Z,335
2017-07-17T15:55:45.411Z,300
2017-07-17T15:56:57.701Z,290
2017-07-17T15:58:09.967Z,285
2017-07-17T15:59:22.322Z,255
2017-07-17T16:00:34.642Z,310
2017-07-17T16:01:47.202Z,350
2017-07-17T16:02:59.504Z,345
2017-07-17T16:04:11.569Z,325
2017-07-17T16:05:23.626Z,360
2017-07-17T16:06:35.638Z,365
2017-07-17T16:07:48.229Z,405
2017-07-17T16:09:00.567Z,435
2017-07-17T16:10:12.883Z,450
2017-07-17T16:11:25.546Z,445
2017-07-17T16:12:38.216Z,405
2017-07-17T16:13:50.778Z,350
2017-07-17T16:15:03.416Z,310
2017-07-17T16:16:15.733Z,290
2017-07-17T16:17:28.059Z,285
2017-07-17T16:18:40.662Z,290
2017-07-17T16:19:52.903Z,320
2017-07-17T16:21:05.239Z,340
2017-07-17T16:22:17.584Z,350
2017-07-17T16:23:30.168Z,370
2017-07-17T16:24:42.511Z,360
2017-07-17T16:25:54.843Z,350
2017-07-17T16:27:07.472Z,335
2017-07-17T16:28:19.824Z,345
2017-07-17T16:29:32.434Z,330
2017-07-17T16:30:45.043Z,290
2017-07-17T16:31:57.355Z,245
2017-07-17T16:33:09.626Z,230
2017-07-17T16:34:22.269Z,210
2017-07-17T16:35:34.631Z,195
2017-07-17T16:36:46.896Z,195
2017-07-17T16:37:59.236Z,195
2017-07-17T16:39:11.865Z,195
2017-07-17T16:40:24.179Z,195
2017-07-17T16:41:36.160Z,190
2017-07-17T16:42:48.521Z,185
2017-07-17T16:44:00.838Z,185
2017-07-17T16:45:13.439Z,180
2017-07-17T16:46:25.535Z,180
2017-07-17T16:47:37.865Z,175
2017-07-17T16:48:50.468Z,175
2017-07-17T16:50:02.735Z,175